Time;durP1;ratioP1;P1;durP2;ratioP2;P2;SDS_P1;SDS_P2;PMS_P1;PMS_P2;Temp;Humidity;BMP_temperature;BMP_pressure;BME280_temperature;BME280_humidity;BME280_pressure;Samples;Min_cycle;Max_cycle;Signal;HPM_P1;HPM_P2
2023/09/17 00:00:58;;;;;;;;;;;;;;;;;;6158438;23;19935;-90
2023/09/17 00:03:24;;;;;;;;;;;;;;;;;;6157078;23;20353;-90
2023/09/17 00:05:50;;;;;;;;;;;;;;;;;;6155529;23;19928;-90
2023/09/17 00:08:16;;;;;;;;;;;;;;;;;;6157228;23;20008;-91
2023/09/17 00:10:43;;;;;;;;;;;;;;;;;;6155863;23;19919;-90
2023/09/17 00:13:09;;;;;;;;;;;;;;;;;;6156433;23;19956;-90
2023/09/17 00:15:35;;;;;;;;;;;;;;;;;;6157513;23;19909;-91
2023/09/17 00:18:01;;;;;;;;;;;;;;;;;;6159476;23;19912;-89
2023/09/17 00:20:27;;;;;;;;;;;;;;;;;;6157447;23;19915;-90
2023/09/17 00:22:53;;;;;;;;;;;;;;;;;;6158801;23;20349;-90
2023/09/17 00:25:19;;;;;;;;;;;;;;;;;;6158400;23;19912;-91
2023/09/17 00:27:45;;;;;;;;;;;;;;;;;;6155868;23;19909;-87
2023/09/17 00:30:11;;;;;;;;;;;;;;;;;;6154566;23;19919;-87
2023/09/17 00:32:37;;;;;;;;;;;;;;;;;;6155215;23;19991;-87
2023/09/17 00:35:03;;;;;;;;;;;;;;;;;;6180282;23;19908;-87
2023/09/17 00:37:29;;;;;;;;;;;;;;;;;;6153856;23;19916;-86
2023/09/17 00:39:55;;;;;;;;;;;;;;;;;;6154368;23;19908;-86
2023/09/17 00:42:21;;;;;;;;;;;;;;;;;;6153976;23;19915;-86
2023/09/17 00:44:47;;;;;;;;;;;;;;;;;;6154419;23;19958;-87
2023/09/17 00:47:12;;;;;;;;;;;;;;;;;;6180353;23;19936;-86
2023/09/17 00:49:39;;;;;;;;;;;;;;;;;;6154016;23;20362;-87
2023/09/17 00:52:05;;;;;;;;;;;;;;;;;;6154049;23;19998;-86
2023/09/17 00:54:30;;;;;;;;;;;;;;;;;;6153902;23;19908;-86
2023/09/17 00:56:56;;;;;;;;;;;;;;;;;;6180733;23;19904;-87
2023/09/17 00:59:23;;;;;;;;;;;;;;;;;;6155762;22;19916;-87
2023/09/17 01:01:49;;;;;;;;;;;;;;;;;;6154833;23;19908;-86
2023/09/17 01:04:15;;;;;;;;;;;;;;;;;;6153706;23;19908;-87
2023/09/17 01:06:41;;;;;;;;;;;;;;;;;;6154693;23;19908;-86
2023/09/17 01:09:07;;;;;;;;;;;;;;;;;;6153834;23;19908;-87
2023/09/17 01:11:34;;;;;;;;;;;;;;;;;;6154477;23;19979;-86
2023/09/17 01:14:12;;;;;;;;;;;;;;;;;;6152654;23;19908;-87
2023/09/17 01:16:38;;;;;;;;;;;;;;;;;;6154508;23;19908;-86
2023/09/17 01:19:04;;;;;;;;;;;;;;;;;;6153309;23;20294;-87
2023/09/17 01:21:36;;;;;;;;;;;;;;;;;;6153929;23;19912;-86
2023/09/17 01:24:02;;;;;;;;;;;;;;;;;;6153218;23;20490;-87
2023/09/17 01:26:28;;;;;;;;;;;;;;;;;;6151909;23;19940;-86
2023/09/17 01:28:54;;;;;;;;;;;;;;;;;;6153872;23;19983;-87
2023/09/17 01:31:20;;;;;;;;;;;;;;;;;;6153748;23;20523;-87
2023/09/17 01:33:46;;;;;;;;;;;;;;;;;;6179919;23;19912;-86
2023/09/17 01:36:12;;;;;;;;;;;;;;;;;;6152564;23;19908;-87
2023/09/17 01:38:38;;;;;;;;;;;;;;;;;;6159290;23;20555;-90
2023/09/17 01:41:07;;;;;;;;;;;;;;;;;;6158720;23;19963;-90
2023/09/17 01:43:33;;;;;;;;;;;;;;;;;;6159509;23;20571;-89
2023/09/17 01:45:59;;;;;;;;;;;;;;;;;;6159416;23;19915;-89
2023/09/17 01:48:25;;;;;;;;;;;;;;;;;;6158696;23;19914;-90
2023/09/17 01:50:51;;;;;;;;;;;;;;;;;;6156761;23;19986;-90
2023/09/17 01:53:17;;;;;;;;;;;;;;;;;;6157584;23;19960;-89
2023/09/17 01:55:43;;;;;;;;;;;;;;;;;;6157594;23;19979;-90
2023/09/17 01:58:10;;;;;;;;;;;;;;;;;;6155773;23;19915;-90
2023/09/17 02:00:36;;;;;;;;;;;;;;;;;;6162528;23;19927;-90
2023/09/17 02:03:05;;;;;;;;;;;;;;;;;;6156847;23;20238;-89
2023/09/17 02:05:31;;;;;;;;;;;;;;;;;;6156707;23;19915;-90
2023/09/17 02:07:58;;;;;;;;;;;;;;;;;;6156652;23;19912;-90
2023/09/17 02:10:23;;;;;;;;;;;;;;;;;;6157019;23;19904;-90
2023/09/17 02:12:49;;;;;;;;;;;;;;;;;;6154025;23;19904;-90
2023/09/17 02:15:16;;;;;;;;;;;;;;;;;;6183206;23;19905;-90
2023/09/17 02:17:42;;;;;;;;;;;;;;;;;;6157342;23;20600;-91
2023/09/17 02:20:11;;;;;;;;;;;;;;;;;;6155015;23;19904;-90
2023/09/17 02:22:37;;;;;;;;;;;;;;;;;;6155479;23;19931;-91
2023/09/17 02:25:03;;;;;;;;;;;;;;;;;;6156313;23;19908;-89
2023/09/17 02:27:29;;;;;;;;;;;;;;;;;;6156071;23;19950;-91
2023/09/17 02:29:55;;;;;;;;;;;;;;;;;;6154964;23;20214;-90
2023/09/17 02:32:21;;;;;;;;;;;;;;;;;;6157063;23;19912;-90
2023/09/17 02:34:47;;;;;;;;;;;;;;;;;;6154464;23;19916;-91
2023/09/17 02:37:13;;;;;;;;;;;;;;;;;;6154915;23;19908;-90
2023/09/17 02:39:39;;;;;;;;;;;;;;;;;;6155713;23;19978;-90
2023/09/17 02:42:08;;;;;;;;;;;;;;;;;;6155030;23;19904;-90
2023/09/17 02:44:34;;;;;;;;;;;;;;;;;;6155994;23;20242;-90
2023/09/17 02:47:02;;;;;;;;;;;;;;;;;;6183209;23;19911;-87
2023/09/17 02:49:28;;;;;;;;;;;;;;;;;;6153033;23;19905;-87
2023/09/17 02:51:54;;;;;;;;;;;;;;;;;;6153436;23;19975;-87
2023/09/17 02:54:20;;;;;;;;;;;;;;;;;;6153604;23;19999;-87
2023/09/17 02:56:46;;;;;;;;;;;;;;;;;;6153815;23;19908;-88
2023/09/17 02:59:12;;;;;;;;;;;;;;;;;;6153839;23;19918;-87
2023/09/17 03:01:39;;;;;;;;;;;;;;;;;;6157875;23;19995;-87
2023/09/17 03:04:06;;;;;;;;;;;;;;;;;;6153610;23;20374;-87
2023/09/17 03:06:33;;;;;;;;;;;;;;;;;;6151829;23;19915;-87
2023/09/17 03:08:59;;;;;;;;;;;;;;;;;;6154376;23;20366;-87
2023/09/17 03:11:26;;;;;;;;;;;;;;;;;;6153201;23;19908;-87
2023/09/17 03:13:52;;;;;;;;;;;;;;;;;;6152407;23;20591;-86
2023/09/17 03:16:18;;;;;;;;;;;;;;;;;;6153446;23;19904;-87
2023/09/17 03:18:44;;;;;;;;;;;;;;;;;;6153374;23;20345;-87
2023/09/17 03:21:10;;;;;;;;;;;;;;;;;;6152851;23;19908;-87
2023/09/17 03:23:36;;;;;;;;;;;;;;;;;;6153032;23;19904;-87
2023/09/17 03:26:03;;;;;;;;;;;;;;;;;;6180066;23;19946;-88
2023/09/17 03:28:29;;;;;;;;;;;;;;;;;;6180828;23;19914;-87
2023/09/17 03:30:55;;;;;;;;;;;;;;;;;;6153181;23;19981;-87
2023/09/17 03:33:21;;;;;;;;;;;;;;;;;;6153637;23;19908;-87
2023/09/17 03:35:47;;;;;;;;;;;;;;;;;;6152161;23;19983;-87
2023/09/17 03:38:13;;;;;;;;;;;;;;;;;;6178971;23;20008;-87
2023/09/17 03:40:39;;;;;;;;;;;;;;;;;;6179790;23;20247;-87
2023/09/17 03:43:05;;;;;;;;;;;;;;;;;;6153873;23;19904;-85
2023/09/17 03:45:31;;;;;;;;;;;;;;;;;;6153376;23;19920;-87
2023/09/17 03:47:57;;;;;;;;;;;;;;;;;;6154344;23;19905;-87
2023/09/17 03:50:23;;;;;;;;;;;;;;;;;;6153614;23;20335;-86
2023/09/17 03:52:49;;;;;;;;;;;;;;;;;;6181604;23;19911;-87
2023/09/17 03:55:15;;;;;;;;;;;;;;;;;;6154896;23;19996;-87
2023/09/17 03:57:41;;;;;;;;;;;;;;;;;;6155383;23;19909;-87
2023/09/17 04:00:07;;;;;;;;;;;;;;;;;;6155082;23;19908;-88
2023/09/17 04:02:33;;;;;;;;;;;;;;;;;;6184123;22;20163;-86
2023/09/17 04:04:59;;;;;;;;;;;;;;;;;;6154981;23;19916;-87
2023/09/17 04:07:25;;;;;;;;;;;;;;;;;;6154544;23;20235;-87
2023/09/17 04:09:51;;;;;;;;;;;;;;;;;;6155023;23;20347;-86
2023/09/17 04:12:17;;;;;;;;;;;;;;;;;;6155970;23;19931;-87
2023/09/17 04:14:43;;;;;;;;;;;;;;;;;;6153920;23;19915;-87
2023/09/17 04:17:09;;;;;;;;;;;;;;;;;;6154947;23;20235;-87
2023/09/17 04:19:35;;;;;;;;;;;;;;;;;;6155674;23;20138;-87
2023/09/17 04:22:02;;;;;;;;;;;;;;;;;;6155524;23;19930;-87
2023/09/17 04:24:28;;;;;;;;;;;;;;;;;;6155052;23;19932;-86
2023/09/17 04:26:54;;;;;;;;;;;;;;;;;;6154373;23;20372;-87
2023/09/17 04:29:20;;;;;;;;;;;;;;;;;;6154214;23;19940;-87
2023/09/17 04:31:49;;;;;;;;;;;;;;;;;;6180753;23;19904;-87
2023/09/17 04:34:15;;;;;;;;;;;;;;;;;;6154292;23;19908;-87
2023/09/17 04:36:41;;;;;;;;;;;;;;;;;;6154080;23;19905;-86
2023/09/17 04:39:09;;;;;;;;;;;;;;;;;;6154360;23;19959;-87
2023/09/17 04:41:35;;;;;;;;;;;;;;;;;;6154683;23;19936;-87
2023/09/17 04:44:03;;;;;;;;;;;;;;;;;;6154518;23;19905;-87
2023/09/17 04:46:29;;;;;;;;;;;;;;;;;;6154568;23;19982;-87
2023/09/17 04:48:55;;;;;;;;;;;;;;;;;;6154162;23;20314;-88
2023/09/17 04:51:21;;;;;;;;;;;;;;;;;;6154628;23;19965;-87
2023/09/17 04:53:47;;;;;;;;;;;;;;;;;;6153945;23;20570;-87
2023/09/17 04:56:13;;;;;;;;;;;;;;;;;;6153816;23;19943;-87
2023/09/17 04:58:39;;;;;;;;;;;;;;;;;;6181379;23;19912;-87
2023/09/17 05:01:06;;;;;;;;;;;;;;;;;;6155682;23;19924;-87
2023/09/17 05:03:32;;;;;;;;;;;;;;;;;;6155063;23;19935;-87
2023/09/17 05:05:58;;;;;;;;;;;;;;;;;;6152847;23;19912;-87
2023/09/17 05:08:24;;;;;;;;;;;;;;;;;;6155479;23;20239;-87
2023/09/17 05:10:50;;;;;;;;;;;;;;;;;;6153772;23;20247;-87
2023/09/17 05:13:16;;;;;;;;;;;;;;;;;;6179386;23;19908;-87
2023/09/17 05:15:42;;;;;;;;;;;;;;;;;;6154438;23;20186;-87
2023/09/17 05:18:11;;;;;;;;;;;;;;;;;;6155193;23;19912;-87
2023/09/17 05:20:43;;;;;;;;;;;;;;;;;;6153690;23;20423;-87
2023/09/17 05:23:09;;;;;;;;;;;;;;;;;;6153992;23;19908;-87
2023/09/17 05:25:35;;;;;;;;;;;;;;;;;;6154567;23;19911;-87
2023/09/17 05:28:06;;;;;;;;;;;;;;;;;;6153814;23;19943;-87
2023/09/17 05:30:32;;;;;;;;;;;;;;;;;;6155275;23;19915;-87
2023/09/17 05:32:58;;;;;;;;;;;;;;;;;;6153835;23;19975;-87
2023/09/17 05:35:24;;;;;;;;;;;;;;;;;;6154112;23;19986;-87
2023/09/17 05:37:50;;;;;;;;;;;;;;;;;;6154292;23;20633;-87
2023/09/17 05:40:15;;;;;;;;;;;;;;;;;;6180299;23;20488;-87
2023/09/17 05:42:45;;;;;;;;;;;;;;;;;;6154515;23;19904;-87
2023/09/17 05:45:11;;;;;;;;;;;;;;;;;;6153824;23;20418;-87
2023/09/17 05:47:37;;;;;;;;;;;;;;;;;;6154522;23;19936;-87
2023/09/17 05:50:05;;;;;;;;;;;;;;;;;;6180410;23;20258;-87
2023/09/17 05:52:31;;;;;;;;;;;;;;;;;;6153981;23;20319;-87
2023/09/17 05:54:57;;;;;;;;;;;;;;;;;;6154235;23;20293;-87
2023/09/17 05:57:23;;;;;;;;;;;;;;;;;;6154850;23;19911;-86
2023/09/17 05:59:49;;;;;;;;;;;;;;;;;;6154098;23;19912;-86
2023/09/17 06:02:15;;;;;;;;;;;;;;;;;;6156334;23;19924;-87
2023/09/17 06:04:41;;;;;;;;;;;;;;;;;;6179799;23;19909;-87
2023/09/17 06:07:07;;;;;;;;;;;;;;;;;;6153876;23;19905;-87
2023/09/17 06:09:33;;;;;;;;;;;;;;;;;;6153869;23;19908;-87
2023/09/17 06:11:58;;;;;;;;;;;;;;;;;;6154359;23;20285;-87
2023/09/17 06:14:24;;;;;;;;;;;;;;;;;;6153314;23;20242;-86
2023/09/17 06:16:50;;;;;;;;;;;;;;;;;;6179196;23;19908;-87
2023/09/17 06:19:16;;;;;;;;;;;;;;;;;;6180579;23;19918;-88
2023/09/17 06:21:42;;;;;;;;;;;;;;;;;;6154949;23;19991;-88
2023/09/17 06:24:08;;;;;;;;;;;;;;;;;;6154300;23;20352;-87
2023/09/17 06:26:34;;;;;;;;;;;;;;;;;;6154158;23;19991;-87
2023/09/17 06:29:00;;;;;;;;;;;;;;;;;;6154659;23;19910;-88
2023/09/17 06:31:26;;;;;;;;;;;;;;;;;;6154115;23;19904;-87
2023/09/17 06:33:53;;;;;;;;;;;;;;;;;;6155582;23;19928;-88
2023/09/17 06:36:19;;;;;;;;;;;;;;;;;;6153403;23;19909;-88
2023/09/17 06:38:45;;;;;;;;;;;;;;;;;;6180697;23;20341;-88
2023/09/17 06:41:11;;;;;;;;;;;;;;;;;;6154530;23;20322;-88
2023/09/17 06:43:38;;;;;;;;;;;;;;;;;;6153550;23;19936;-87
2023/09/17 06:46:04;;;;;;;;;;;;;;;;;;6154062;23;19911;-88
2023/09/17 06:48:30;;;;;;;;;;;;;;;;;;6153829;23;19904;-88
2023/09/17 06:50:57;;;;;;;;;;;;;;;;;;6154149;23;19908;-88
2023/09/17 06:53:23;;;;;;;;;;;;;;;;;;6154473;23;19999;-87
2023/09/17 06:55:49;;;;;;;;;;;;;;;;;;6154096;23;19939;-87
2023/09/17 06:58:18;;;;;;;;;;;;;;;;;;6154132;23;20302;-87
2023/09/17 07:00:44;;;;;;;;;;;;;;;;;;6156895;22;19955;-87
2023/09/17 07:03:10;;;;;;;;;;;;;;;;;;6154450;23;19912;-87
2023/09/17 07:05:36;;;;;;;;;;;;;;;;;;6153377;23;20285;-88
2023/09/17 07:08:02;;;;;;;;;;;;;;;;;;6154104;23;19911;-87
2023/09/17 07:10:37;;;;;;;;;;;;;;;;;;6155573;23;20415;-88
2023/09/17 07:13:06;;;;;;;;;;;;;;;;;;6152806;23;19919;-88
2023/09/17 07:15:32;;;;;;;;;;;;;;;;;;6154271;23;19908;-88
2023/09/17 07:17:58;;;;;;;;;;;;;;;;;;6154613;23;19971;-87
2023/09/17 07:20:24;;;;;;;;;;;;;;;;;;6153184;23;19981;-88
2023/09/17 07:22:56;;;;;;;;;;;;;;;;;;6153934;23;19908;-88
2023/09/17 07:25:22;;;;;;;;;;;;;;;;;;6181079;23;19944;-88
2023/09/17 07:27:48;;;;;;;;;;;;;;;;;;6155108;23;19974;-87
2023/09/17 07:30:15;;;;;;;;;;;;;;;;;;6153558;23;19904;-87
2023/09/17 07:32:40;;;;;;;;;;;;;;;;;;6153572;23;19978;-87
2023/09/17 07:35:06;;;;;;;;;;;;;;;;;;6153501;23;20316;-87
2023/09/17 07:37:32;;;;;;;;;;;;;;;;;;6153482;23;19944;-88
2023/09/17 07:39:58;;;;;;;;;;;;;;;;;;6155061;23;20420;-88
2023/09/17 07:42:24;;;;;;;;;;;;;;;;;;6153945;23;20319;-88
2023/09/17 07:44:50;;;;;;;;;;;;;;;;;;6155167;23;20386;-88
2023/09/17 07:47:17;;;;;;;;;;;;;;;;;;6153556;23;19908;-88
2023/09/17 07:49:43;;;;;;;;;;;;;;;;;;6153591;23;19912;-88
2023/09/17 07:52:08;;;;;;;;;;;;;;;;;;6152887;23;19908;-89
2023/09/17 07:54:34;;;;;;;;;;;;;;;;;;6179831;23;19908;-88
2023/09/17 07:57:04;;;;;;;;;;;;;;;;;;6180114;23;19914;-87
2023/09/17 07:59:30;;;;;;;;;;;;;;;;;;6154146;23;19908;-88
2023/09/17 08:01:56;;;;;;;;;;;;;;;;;;6158624;23;19967;-88
2023/09/17 08:04:22;;;;;;;;;;;;;;;;;;6153004;23;20342;-87
2023/09/17 08:06:49;;;;;;;;;;;;;;;;;;6153158;23;19946;-87
2023/09/17 08:09:15;;;;;;;;;;;;;;;;;;6152726;23;19905;-87
2023/09/17 08:11:41;;;;;;;;;;;;;;;;;;6154715;23;19934;-88
2023/09/17 08:14:07;;;;;;;;;;;;;;;;;;6151596;23;19912;-87
2023/09/17 08:16:34;;;;;;;;;;;;;;;;;;6180302;23;19912;-88
2023/09/17 08:19:02;;;;;;;;;;;;;;;;;;6153203;23;19935;-88
2023/09/17 08:21:28;;;;;;;;;;;;;;;;;;6153178;23;20323;-88
2023/09/17 08:23:55;;;;;;;;;;;;;;;;;;6154176;23;19979;-88
2023/09/17 08:26:21;;;;;;;;;;;;;;;;;;6151961;23;20386;-88
2023/09/17 08:28:49;;;;;;;;;;;;;;;;;;6154018;23;19946;-88
2023/09/17 08:31:16;;;;;;;;;;;;;;;;;;6152735;23;20331;-88
2023/09/17 08:33:42;;;;;;;;;;;;;;;;;;6153355;23;19940;-88
2023/09/17 08:36:09;;;;;;;;;;;;;;;;;;6152966;23;19927;-88
2023/09/17 08:38:36;;;;;;;;;;;;;;;;;;6155265;23;20334;-86
2023/09/17 08:41:01;;;;;;;;;;;;;;;;;;6154966;23;19908;-88
2023/09/17 08:43:27;;;;;;;;;;;;;;;;;;6153843;23;19985;-87
2023/09/17 08:45:53;;;;;;;;;;;;;;;;;;6154884;23;19934;-87
2023/09/17 08:48:20;;;;;;;;;;;;;;;;;;6182865;23;20216;-90
2023/09/17 08:50:46;;;;;;;;;;;;;;;;;;6156785;23;20823;-91
2023/09/17 08:53:12;;;;;;;;;;;;;;;;;;6156921;23;19915;-91
2023/09/17 08:55:38;;;;;;;;;;;;;;;;;;6183870;23;19908;-90
2023/09/17 08:58:04;;;;;;;;;;;;;;;;;;6156853;23;19920;-90
2023/09/17 09:00:30;;;;;;;;;;;;;;;;;;6156682;23;20242;-91
2023/09/17 09:03:03;;;;;;;;;;;;;;;;;;6160837;23;20186;-90
2023/09/17 09:05:29;;;;;;;;;;;;;;;;;;6156383;23;19912;-91
2023/09/17 09:07:56;;;;;;;;;;;;;;;;;;6156077;23;20493;-91
2023/09/17 09:10:22;;;;;;;;;;;;;;;;;;6156487;23;19967;-90
2023/09/17 09:12:48;;;;;;;;;;;;;;;;;;6182814;23;19908;-90
2023/09/17 09:15:13;;;;;;;;;;;;;;;;;;6156869;23;19904;-91
2023/09/17 09:17:39;;;;;;;;;;;;;;;;;;6157267;23;20295;-90
2023/09/17 09:20:05;;;;;;;;;;;;;;;;;;6155537;23;19943;-90
2023/09/17 09:22:31;;;;;;;;;;;;;;;;;;6156414;23;19954;-90
2023/09/17 09:24:57;;;;;;;;;;;;;;;;;;6155754;23;19905;-90
2023/09/17 09:27:24;;;;;;;;;;;;;;;;;;6157097;23;19912;-90
2023/09/17 09:29:50;;;;;;;;;;;;;;;;;;6155664;23;19967;-90
2023/09/17 09:32:16;;;;;;;;;;;;;;;;;;6159139;23;20323;-90
2023/09/17 09:34:42;;;;;;;;;;;;;;;;;;6155839;23;19904;-90
2023/09/17 09:37:12;;;;;;;;;;;;;;;;;;6156730;23;19908;-91
2023/09/17 09:39:38;;;;;;;;;;;;;;;;;;6155817;23;19908;-91
2023/09/17 09:42:04;;;;;;;;;;;;;;;;;;6156321;23;20528;-91
2023/09/17 09:44:30;;;;;;;;;;;;;;;;;;6155625;23;19911;-91
2023/09/17 09:46:57;;;;;;;;;;;;;;;;;;6155919;23;19908;-88
2023/09/17 09:49:23;;;;;;;;;;;;;;;;;;6154295;23;19919;-87
2023/09/17 09:51:49;;;;;;;;;;;;;;;;;;6180053;23;19931;-87
2023/09/17 09:54:15;;;;;;;;;;;;;;;;;;6154702;23;19909;-87
2023/09/17 09:56:40;;;;;;;;;;;;;;;;;;6153799;23;20049;-87
2023/09/17 09:59:07;;;;;;;;;;;;;;;;;;6155112;23;20226;-88
2023/09/17 10:01:33;;;;;;;;;;;;;;;;;;6153890;23;19962;-88
2023/09/17 10:04:05;;;;;;;;;;;;;;;;;;6156964;23;19959;-87
2023/09/17 10:06:31;;;;;;;;;;;;;;;;;;6154302;23;20559;-88
2023/09/17 10:08:58;;;;;;;;;;;;;;;;;;6155663;23;19936;-88
2023/09/17 10:11:23;;;;;;;;;;;;;;;;;;6154204;23;19919;-87
2023/09/17 10:13:49;;;;;;;;;;;;;;;;;;6153382;23;19908;-88
2023/09/17 10:16:18;;;;;;;;;;;;;;;;;;6155279;23;20413;-88
2023/09/17 10:18:45;;;;;;;;;;;;;;;;;;6154526;23;19912;-88
2023/09/17 10:21:11;;;;;;;;;;;;;;;;;;6155258;23;20369;-88
2023/09/17 10:23:37;;;;;;;;;;;;;;;;;;6155000;23;19908;-87
2023/09/17 10:26:03;;;;;;;;;;;;;;;;;;6155448;23;20342;-88
2023/09/17 10:28:29;;;;;;;;;;;;;;;;;;6154564;23;19908;-87
2023/09/17 10:30:55;;;;;;;;;;;;;;;;;;6181434;23;19905;-87
2023/09/17 10:33:21;;;;;;;;;;;;;;;;;;6153774;23;19908;-88
2023/09/17 10:35:47;;;;;;;;;;;;;;;;;;6153012;23;20344;-88
2023/09/17 10:38:13;;;;;;;;;;;;;;;;;;6180653;23;19912;-87
2023/09/17 10:40:39;;;;;;;;;;;;;;;;;;6179949;23;19923;-88
2023/09/17 10:43:06;;;;;;;;;;;;;;;;;;6154712;23;19904;-88
2023/09/17 10:45:32;;;;;;;;;;;;;;;;;;6153825;23;19935;-88
2023/09/17 10:47:58;;;;;;;;;;;;;;;;;;6155529;23;19911;-87
2023/09/17 10:50:24;;;;;;;;;;;;;;;;;;6153108;23;19908;-88
2023/09/17 10:52:50;;;;;;;;;;;;;;;;;;6181073;23;20345;-88
2023/09/17 10:55:16;;;;;;;;;;;;;;;;;;6153979;23;19915;-87
2023/09/17 10:57:42;;;;;;;;;;;;;;;;;;6154205;23;19983;-88
2023/09/17 11:00:11;;;;;;;;;;;;;;;;;;6152731;23;19916;-87
2023/09/17 11:02:37;;;;;;;;;;;;;;;;;;6181598;22;19927;-87
2023/09/17 11:05:04;;;;;;;;;;;;;;;;;;6152440;23;19912;-87
2023/09/17 11:07:30;;;;;;;;;;;;;;;;;;6154050;23;19904;-87
2023/09/17 11:09:58;;;;;;;;;;;;;;;;;;6155196;23;19955;-87
2023/09/17 11:12:24;;;;;;;;;;;;;;;;;;6154924;23;20464;-88
2023/09/17 11:14:50;;;;;;;;;;;;;;;;;;6153676;23;19984;-88
2023/09/17 11:17:16;;;;;;;;;;;;;;;;;;6153580;23;20315;-88
2023/09/17 11:19:42;;;;;;;;;;;;;;;;;;6152772;23;19984;-87
2023/09/17 11:22:07;;;;;;;;;;;;;;;;;;6153412;23;19908;-88
2023/09/17 11:24:33;;;;;;;;;;;;;;;;;;6153037;23;19912;-88
2023/09/17 11:27:04;;;;;;;;;;;;;;;;;;6154052;23;19916;-88
2023/09/17 11:29:30;;;;;;;;;;;;;;;;;;6180453;23;19911;-88
2023/09/17 11:31:57;;;;;;;;;;;;;;;;;;6154569;23;19909;-88
2023/09/17 11:34:23;;;;;;;;;;;;;;;;;;6153223;23;20327;-89
2023/09/17 11:36:50;;;;;;;;;;;;;;;;;;6154586;23;19951;-88
2023/09/17 11:39:20;;;;;;;;;;;;;;;;;;6153745;23;19919;-87
2023/09/17 11:41:50;;;;;;;;;;;;;;;;;;6151049;23;19960;-88
2023/09/17 11:44:16;;;;;;;;;;;;;;;;;;6151146;23;20235;-87
2023/09/17 11:46:42;;;;;;;;;;;;;;;;;;6153535;23;19974;-88
2023/09/17 11:49:08;;;;;;;;;;;;;;;;;;6152524;23;19916;-88
2023/09/17 11:51:34;;;;;;;;;;;;;;;;;;6152314;23;19966;-88
2023/09/17 11:54:00;;;;;;;;;;;;;;;;;;6154411;23;20327;-88
2023/09/17 11:56:27;;;;;;;;;;;;;;;;;;6152420;23;19915;-88
2023/09/17 11:58:53;;;;;;;;;;;;;;;;;;6154252;23;19926;-88
2023/09/17 12:01:19;;;;;;;;;;;;;;;;;;6153761;23;19940;-88
2023/09/17 12:03:45;;;;;;;;;;;;;;;;;;6156781;23;20342;-88
2023/09/17 12:06:11;;;;;;;;;;;;;;;;;;6151727;23;19916;-88
2023/09/17 12:08:37;;;;;;;;;;;;;;;;;;6159295;23;19908;-91
2023/09/17 12:11:08;;;;;;;;;;;;;;;;;;6162939;23;19908;-90
2023/09/17 12:13:34;;;;;;;;;;;;;;;;;;6162977;23;19930;-91
2023/09/17 12:16:00;;;;;;;;;;;;;;;;;;6164325;23;19943;-91
2023/09/17 12:18:26;;;;;;;;;;;;;;;;;;6155953;23;20216;-88
2023/09/17 12:20:59;;;;;;;;;;;;;;;;;;6154738;23;19959;-88
2023/09/17 12:23:37;;;;;;;;;;;;;;;;;;6154715;23;19908;-88
2023/09/17 12:26:03;;;;;;;;;;;;;;;;;;6154770;23;19940;-88
2023/09/17 12:28:28;;;;;;;;;;;;;;;;;;6155579;23;19915;-88
2023/09/17 12:30:54;;;;;;;;;;;;;;;;;;6156013;23;19931;-88
2023/09/17 12:33:20;;;;;;;;;;;;;;;;;;6155299;23;19915;-88
2023/09/17 12:35:46;;;;;;;;;;;;;;;;;;6153215;23;19904;-88
2023/09/17 12:38:12;;;;;;;;;;;;;;;;;;6153678;23;19915;-87
2023/09/17 12:40:38;;;;;;;;;;;;;;;;;;6142589;23;19908;-86
2023/09/17 12:43:04;;;;;;;;;;;;;;;;;;6176612;23;20005;-84
2023/09/17 12:45:30;;;;;;;;;;;;;;;;;;6151486;23;19987;-84
2023/09/17 12:47:56;;;;;;;;;;;;;;;;;;6153509;23;19909;-84
2023/09/17 12:50:22;;;;;;;;;;;;;;;;;;6178614;23;20142;-83
2023/09/17 12:52:48;;;;;;;;;;;;;;;;;;6154481;23;19954;-84
2023/09/17 12:55:13;;;;;;;;;;;;;;;;;;6153110;23;19943;-83
2023/09/17 12:57:40;;;;;;;;;;;;;;;;;;6151291;23;19915;-84
2023/09/17 13:00:06;;;;;;;;;;;;;;;;;;6152386;23;19908;-84
2023/09/17 13:02:34;;;;;;;;;;;;;;;;;;6153624;23;20046;-84
2023/09/17 13:05:00;;;;;;;;;;;;;;;;;;6152052;23;19904;-84
2023/09/17 13:07:26;;;;;;;;;;;;;;;;;;6151432;23;19911;-84
2023/09/17 13:09:52;;;;;;;;;;;;;;;;;;6152480;23;19932;-84
2023/09/17 13:12:18;;;;;;;;;;;;;;;;;;6152372;23;19904;-84
2023/09/17 13:14:47;;;;;;;;;;;;;;;;;;6150122;23;19967;-84
2023/09/17 13:17:13;;;;;;;;;;;;;;;;;;6152577;23;19919;-84
2023/09/17 13:19:39;;;;;;;;;;;;;;;;;;6177984;23;19995;-83
2023/09/17 13:22:05;;;;;;;;;;;;;;;;;;6152296;23;20151;-84
2023/09/17 13:24:33;;;;;;;;;;;;;;;;;;6152234;23;19936;-84
2023/09/17 13:29:55;;;;;;;;;;;;;;;;;;6143387;23;20352;-84
2023/09/17 13:32:21;;;;;;;;;;;;;;;;;;6152184;23;19908;-85
2023/09/17 13:34:47;;;;;;;;;;;;;;;;;;6151404;23;20031;-85
2023/09/17 13:37:13;;;;;;;;;;;;;;;;;;6151883;23;20039;-84
2023/09/17 13:39:39;;;;;;;;;;;;;;;;;;6151350;23;19955;-85
2023/09/17 13:42:05;;;;;;;;;;;;;;;;;;6151079;23;19927;-84
2023/09/17 13:44:31;;;;;;;;;;;;;;;;;;6150687;23;19912;-84
2023/09/17 13:46:58;;;;;;;;;;;;;;;;;;6152758;23;20777;-83
2023/09/17 13:49:24;;;;;;;;;;;;;;;;;;6151201;23;19912;-87
2023/09/17 13:51:50;;;;;;;;;;;;;;;;;;6150454;23;20496;-84
2023/09/17 13:54:19;;;;;;;;;;;;;;;;;;6177849;23;19909;-84
2023/09/17 13:56:45;;;;;;;;;;;;;;;;;;6177746;23;19904;-84
2023/09/17 13:59:11;;;;;;;;;;;;;;;;;;6149946;23;19915;-85
2023/09/17 14:01:38;;;;;;;;;;;;;;;;;;6152082;23;19904;-85
2023/09/17 14:04:04;;;;;;;;;;;;;;;;;;6154212;23;19920;-85
2023/09/17 14:06:30;;;;;;;;;;;;;;;;;;6152038;23;19908;-85
2023/09/17 14:08:56;;;;;;;;;;;;;;;;;;6178857;23;19904;-84
2023/09/17 14:11:25;;;;;;;;;;;;;;;;;;6152589;23;20314;-84
2023/09/17 14:13:51;;;;;;;;;;;;;;;;;;6151057;23;19905;-84
2023/09/17 14:16:17;;;;;;;;;;;;;;;;;;6151431;23;19908;-84
2023/09/17 14:18:49;;;;;;;;;;;;;;;;;;6150299;23;20301;-84
2023/09/17 14:21:15;;;;;;;;;;;;;;;;;;6150949;23;19982;-84
2023/09/17 14:23:43;;;;;;;;;;;;;;;;;;6150395;23;19986;-84
2023/09/17 14:26:09;;;;;;;;;;;;;;;;;;6151461;23;19904;-84
2023/09/17 14:28:35;;;;;;;;;;;;;;;;;;6152815;23;19904;-86
2023/09/17 14:31:01;;;;;;;;;;;;;;;;;;6152163;23;19904;-86
2023/09/17 14:33:27;;;;;;;;;;;;;;;;;;6152782;23;20315;-87
2023/09/17 14:35:53;;;;;;;;;;;;;;;;;;6151148;23;19908;-86
2023/09/17 14:38:19;;;;;;;;;;;;;;;;;;6152349;23;19908;-86
2023/09/17 14:40:45;;;;;;;;;;;;;;;;;;6149962;23;19927;-85
2023/09/17 14:43:12;;;;;;;;;;;;;;;;;;6151234;23;19908;-85
2023/09/17 14:45:38;;;;;;;;;;;;;;;;;;6151197;23;19909;-83
2023/09/17 14:48:03;;;;;;;;;;;;;;;;;;6150583;23;20601;-84
2023/09/17 14:50:29;;;;;;;;;;;;;;;;;;6149777;23;19912;-84
2023/09/17 14:52:55;;;;;;;;;;;;;;;;;;6151671;23;20143;-85
2023/09/17 14:55:24;;;;;;;;;;;;;;;;;;6149472;23;19915;-85
2023/09/17 14:57:50;;;;;;;;;;;;;;;;;;6152018;23;19916;-84
2023/09/17 15:00:17;;;;;;;;;;;;;;;;;;6150767;23;20239;-85
2023/09/17 15:02:43;;;;;;;;;;;;;;;;;;6153588;23;19920;-84
2023/09/17 15:05:16;;;;;;;;;;;;;;;;;;6151136;23;19911;-85
2023/09/17 15:07:42;;;;;;;;;;;;;;;;;;6151316;23;19920;-83
2023/09/17 15:10:08;;;;;;;;;;;;;;;;;;6151668;23;20039;-85
2023/09/17 15:12:34;;;;;;;;;;;;;;;;;;6151270;23;19908;-85
2023/09/17 15:15:00;;;;;;;;;;;;;;;;;;6176627;23;19950;-84
2023/09/17 15:17:28;;;;;;;;;;;;;;;;;;6175944;23;19908;-84
2023/09/17 15:19:54;;;;;;;;;;;;;;;;;;6150470;23;19967;-85
2023/09/17 15:22:20;;;;;;;;;;;;;;;;;;6151615;23;19967;-85
2023/09/17 15:24:45;;;;;;;;;;;;;;;;;;6176142;23;20094;-84
2023/09/17 15:27:11;;;;;;;;;;;;;;;;;;6152533;23;19908;-83
2023/09/17 15:29:37;;;;;;;;;;;;;;;;;;6177100;23;19912;-83
2023/09/17 15:32:03;;;;;;;;;;;;;;;;;;6150324;23;19913;-83
2023/09/17 15:34:29;;;;;;;;;;;;;;;;;;6148473;23;19920;-83
2023/09/17 15:36:55;;;;;;;;;;;;;;;;;;6150079;23;19908;-83
2023/09/17 15:39:21;;;;;;;;;;;;;;;;;;6149862;23;19932;-82
2023/09/17 15:41:47;;;;;;;;;;;;;;;;;;6175535;23;19974;-83
2023/09/17 15:44:13;;;;;;;;;;;;;;;;;;6150792;23;19991;-83
2023/09/17 15:46:41;;;;;;;;;;;;;;;;;;6149966;23;19935;-86
2023/09/17 15:49:07;;;;;;;;;;;;;;;;;;6149595;23;19908;-83
2023/09/17 15:51:33;;;;;;;;;;;;;;;;;;6149985;23;19915;-83
2023/09/17 15:53:59;;;;;;;;;;;;;;;;;;6150495;23;19904;-83
2023/09/17 15:56:25;;;;;;;;;;;;;;;;;;6150771;23;19931;-83
2023/09/17 15:58:51;;;;;;;;;;;;;;;;;;6149819;23;19915;-83
2023/09/17 16:01:17;;;;;;;;;;;;;;;;;;6149432;23;19909;-83
2023/09/17 16:03:43;;;;;;;;;;;;;;;;;;6154270;23;19920;-83
2023/09/17 16:06:09;;;;;;;;;;;;;;;;;;6176925;23;19910;-83
2023/09/17 16:08:34;;;;;;;;;;;;;;;;;;6150512;23;19958;-83
2023/09/17 16:11:00;;;;;;;;;;;;;;;;;;6151296;23;19970;-83
2023/09/17 16:13:26;;;;;;;;;;;;;;;;;;6150571;23;20062;-84
2023/09/17 16:15:52;;;;;;;;;;;;;;;;;;6151997;23;20562;-83
2023/09/17 16:18:18;;;;;;;;;;;;;;;;;;6177279;23;20335;-83
2023/09/17 16:20:44;;;;;;;;;;;;;;;;;;6150529;23;19912;-83
2023/09/17 16:23:10;;;;;;;;;;;;;;;;;;6149790;23;20330;-83
2023/09/17 16:25:36;;;;;;;;;;;;;;;;;;6151510;23;19904;-83
2023/09/17 16:28:02;;;;;;;;;;;;;;;;;;6150444;23;20293;-83
2023/09/17 16:30:28;;;;;;;;;;;;;;;;;;6149518;23;19904;-83
2023/09/17 16:32:54;;;;;;;;;;;;;;;;;;6150108;23;19912;-83
2023/09/17 16:35:20;;;;;;;;;;;;;;;;;;6151603;23;19912;-82
2023/09/17 16:37:45;;;;;;;;;;;;;;;;;;6177189;23;19909;-83
2023/09/17 16:40:11;;;;;;;;;;;;;;;;;;6151713;23;19962;-83
2023/09/17 16:42:38;;;;;;;;;;;;;;;;;;6177781;23;20334;-83